Time;durP1;ratioP1;P1;durP2;ratioP2;P2;SDS_P1;SDS_P2;PMS_P1;PMS_P2;Temp;Humidity;BMP_temperature;BMP_pressure;BME280_temperature;BME280_humidity;BME280_pressure;Samples;Min_cycle;Max_cycle;Signal;HPM_P1;HPM_P2
2023/01/26 00:00:47;;;;;;;10.60;6.23;;;-0.50;99.90;;;;;;5069656;28;20506;-66
2023/01/26 00:03:14;;;;;;;12.27;6.23;;;-0.50;99.90;;;;;;5072971;28;20940;-66
2023/01/26 00:05:40;;;;;;;11.90;6.60;;;-0.40;99.90;;;;;;5073075;28;20484;-66
2023/01/26 00:08:08;;;;;;;10.63;6.70;;;-0.40;99.90;;;;;;5072682;28;20493;-67
2023/01/26 00:10:36;;;;;;;11.63;6.77;;;-0.40;99.90;;;;;;5072959;28;20831;-68
2023/01/26 00:13:04;;;;;;;9.00;6.10;;;-0.50;99.90;;;;;;5072729;28;20462;-66
2023/01/26 00:15:32;;;;;;;11.77;7.17;;;-0.40;99.90;;;;;;5073221;28;20444;-66
2023/01/26 00:17:59;;;;;;;11.97;6.97;;;-0.40;99.90;;;;;;5072964;28;20452;-66
2023/01/26 00:20:26;;;;;;;13.23;6.90;;;-0.50;99.90;;;;;;5071741;28;20497;-66
2023/01/26 00:22:53;;;;;;;12.37;7.23;;;-0.50;99.90;;;;;;5072281;28;20487;-66
2023/01/26 00:25:19;;;;;;;11.10;6.10;;;-0.50;99.90;;;;;;5073360;28;20533;-66
2023/01/26 00:27:46;;;;;;;13.20;7.20;;;-0.60;99.90;;;;;;5072984;28;20502;-66
2023/01/26 00:30:15;;;;;;;13.70;6.97;;;-0.60;99.90;;;;;;5072651;28;20505;-67
2023/01/26 00:32:41;;;;;;;12.43;6.60;;;-0.60;99.90;;;;;;5072086;28;20529;-66
2023/01/26 00:35:09;;;;;;;13.17;7.60;;;-0.60;99.90;;;;;;5072577;28;20928;-66
2023/01/26 00:37:35;;;;;;;15.67;8.30;;;-0.70;99.90;;;;;;5072680;28;20448;-66
2023/01/26 00:40:02;;;;;;;14.47;8.27;;;-0.70;99.90;;;;;;5072641;28;20460;-65
2023/01/26 00:42:29;;;;;;;15.30;7.70;;;-0.70;99.90;;;;;;5072202;28;20468;-68
2023/01/26 00:44:55;;;;;;;16.23;8.20;;;-0.70;99.90;;;;;;5071687;28;20480;-66
2023/01/26 00:47:23;;;;;;;12.77;5.63;;;-0.70;99.90;;;;;;5072099;28;20460;-65
2023/01/26 00:49:50;;;;;;;14.30;7.00;;;-0.70;99.90;;;;;;5072168;28;20456;-66
2023/01/26 00:52:16;;;;;;;13.77;7.60;;;-0.80;99.90;;;;;;5072195;28;20501;-66
2023/01/26 00:54:43;;;;;;;13.93;6.50;;;-0.80;99.90;;;;;;5072283;28;20514;-66
2023/01/26 00:57:10;;;;;;;14.00;7.23;;;-0.80;99.90;;;;;;5072363;28;20456;-66
2023/01/26 00:59:37;;;;;;;15.73;7.60;;;-0.80;99.90;;;;;;5071868;28;20463;-66
2023/01/26 01:02:04;;;;;;;15.90;7.00;;;-0.80;99.90;;;;;;5071791;28;20471;-66
2023/01/26 01:04:32;;;;;;;16.23;8.10;;;-0.80;99.90;;;;;;5071851;28;20537;-66
2023/01/26 01:06:59;;;;;;;18.07;8.70;;;-0.70;99.90;;;;;;5071504;28;20468;-66
2023/01/26 01:09:26;;;;;;;16.60;7.97;;;-0.70;99.90;;;;;;5071959;28;20505;-66
2023/01/26 01:11:52;;;;;;;15.53;7.47;;;-0.70;99.90;;;;;;5071998;28;20525;-66
2023/01/26 01:14:19;;;;;;;17.33;7.73;;;-0.70;99.90;;;;;;5071476;28;21050;-66
2023/01/26 01:16:46;;;;;;;14.53;7.47;;;-0.70;99.90;;;;;;5071350;28;21021;-66
2023/01/26 01:19:14;;;;;;;15.53;8.20;;;-0.60;99.90;;;;;;5072156;28;20452;-66
2023/01/26 01:21:42;;;;;;;15.27;8.57;;;-0.60;99.90;;;;;;5071458;28;20483;-66
2023/01/26 01:24:09;;;;;;;18.10;8.37;;;-0.70;99.90;;;;;;5071840;28;20944;-66
2023/01/26 01:26:36;;;;;;;15.20;8.10;;;-0.70;99.90;;;;;;5071749;28;20488;-66
2023/01/26 01:29:03;;;;;;;17.50;8.17;;;-0.70;99.90;;;;;;5071842;28;20451;-66
2023/01/26 01:31:30;;;;;;;17.57;7.80;;;-0.60;99.90;;;;;;5071213;28;20475;-66
2023/01/26 01:33:57;;;;;;;18.47;8.03;;;-0.80;99.90;;;;;;5071589;28;20444;-66
2023/01/26 01:36:24;;;;;;;17.97;7.60;;;-0.80;99.90;;;;;;5071646;28;20501;-66
2023/01/26 01:38:52;;;;;;;15.07;7.20;;;-0.80;99.90;;;;;;5071237;28;20448;-66
2023/01/26 01:41:22;;;;;;;15.00;7.80;;;-0.80;99.90;;;;;;5071224;28;20471;-66
2023/01/26 01:43:48;;;;;;;14.70;7.43;;;-0.80;99.90;;;;;;5071793;28;20546;-67
2023/01/26 01:46:24;;;;;;;13.30;7.20;;;-0.80;99.90;;;;;;5071180;28;20483;-66
2023/01/26 01:48:56;;;;;;;17.77;8.50;;;-0.70;99.90;;;;;;5069589;28;20481;-66
2023/01/26 01:51:33;;;;;;;13.10;7.23;;;-0.80;99.90;;;;;;5071133;28;20529;-65
2023/01/26 01:54:06;;;;;;;16.40;8.40;;;-0.80;99.90;;;;;;5071506;28;20509;-65
2023/01/26 01:56:35;;;;;;;15.47;7.90;;;-0.80;99.90;;;;;;5071583;28;20451;-66
2023/01/26 01:59:02;;;;;;;21.63;10.10;;;-0.80;99.90;;;;;;5071424;28;20460;-68
2023/01/26 02:01:29;;;;;;;21.57;9.50;;;-0.90;99.90;;;;;;5071093;28;20483;-67
2023/01/26 02:04:00;;;;;;;20.93;10.10;;;-0.90;99.90;;;;;;5071376;28;20569;-66
2023/01/26 02:06:30;;;;;;;16.90;9.60;;;-0.90;99.90;;;;;;5070449;28;20482;-66
2023/01/26 02:08:58;;;;;;;17.47;9.07;;;-1.00;99.90;;;;;;5071465;28;20456;-66
2023/01/26 02:11:31;;;;;;;17.57;9.90;;;-1.00;99.90;;;;;;5070840;28;20484;-66
2023/01/26 02:13:59;;;;;;;17.13;9.17;;;-0.90;99.90;;;;;;5070880;28;20920;-67
2023/01/26 02:16:26;;;;;;;17.20;8.87;;;-1.00;99.90;;;;;;5071191;28;20502;-67
2023/01/26 02:18:52;;;;;;;17.57;9.73;;;-1.00;99.90;;;;;;5071008;28;20498;-67
2023/01/26 02:21:22;;;;;;;23.10;10.70;;;-1.00;99.90;;;;;;5070786;28;21036;-65
2023/01/26 02:24:00;;;;;;;20.07;10.27;;;-1.00;99.90;;;;;;5070792;28;20475;-67
2023/01/26 02:26:30;;;;;;;21.77;10.87;;;-1.00;99.90;;;;;;5070976;28;20917;-66
2023/01/26 02:28:57;;;;;;;17.97;9.50;;;-1.00;99.90;;;;;;5070810;28;21311;-66
2023/01/26 02:31:25;;;;;;;21.03;10.57;;;-1.00;99.90;;;;;;5070742;28;20468;-68
2023/01/26 02:33:51;;;;;;;22.10;9.40;;;-1.00;99.90;;;;;;5071101;28;20502;-66
2023/01/26 02:36:21;;;;;;;17.83;9.67;;;-1.00;99.90;;;;;;5070967;28;20444;-66
2023/01/26 02:38:55;;;;;;;22.43;10.03;;;-1.00;99.90;;;;;;5062659;28;20448;-65
2023/01/26 02:44:06;;;;;;;17.20;9.30;;;-1.10;99.90;;;;;;5070525;28;20447;-65
2023/01/26 02:46:33;;;;;;;22.33;10.77;;;-1.20;99.90;;;;;;5070599;28;20487;-66
2023/01/26 02:51:43;;;;;;;24.47;11.63;;;-1.20;99.90;;;;;;5070055;28;20521;-66
2023/01/26 02:55:21;;;;;;;25.47;10.80;;;-1.20;99.90;;;;;;5070887;28;20460;-67
2023/01/26 02:56:56;;;;;;;23.77;10.57;;;-1.20;99.90;;;;;;5070759;28;20439;-66
2023/01/26 02:59:24;;;;;;;20.80;9.93;;;-1.30;99.90;;;;;;5070372;28;20444;-66
2023/01/26 03:01:53;;;;;;;19.83;10.40;;;-1.30;99.90;;;;;;5070591;28;20226;-66
2023/01/26 03:04:19;;;;;;;18.47;8.80;;;-1.30;99.90;;;;;;5070519;28;20448;-66
2023/01/26 03:06:46;;;;;;;15.83;8.30;;;-1.40;99.90;;;;;;5070772;28;20492;-67
2023/01/26 03:09:13;;;;;;;16.40;8.43;;;-1.40;99.90;;;;;;5070428;28;20460;-67
2023/01/26 03:11:41;;;;;;;14.60;9.00;;;-1.40;99.90;;;;;;5070398;28;20525;-66
2023/01/26 03:14:08;;;;;;;19.70;10.17;;;-1.40;99.90;;;;;;5069865;28;20539;-67
2023/01/26 03:16:36;;;;;;;20.20;9.50;;;-1.50;99.90;;;;;;5070706;28;20509;-66
2023/01/26 03:29:59;;;;;;;18.40;8.90;;;-1.40;99.90;;;;;;5071529;28;20466;-66
2023/01/26 03:32:27;;;;;;;17.50;8.53;;;-1.40;99.90;;;;;;5073480;28;20517;-66
2023/01/26 03:34:53;;;;;;;15.50;8.40;;;-1.40;99.90;;;;;;5073868;28;20936;-67
2023/01/26 03:37:21;;;;;;;16.90;9.07;;;-1.40;99.90;;;;;;5074366;28;20447;-67
2023/01/26 03:56:21;;;;;;;17.70;9.07;;;-1.30;99.90;;;;;;5073548;28;20431;-66
2023/01/26 03:58:50;;;;;;;17.53;9.40;;;-1.30;99.90;;;;;;5073517;28;20530;-66
2023/01/26 04:01:19;;;;;;;14.37;7.73;;;-1.30;99.90;;;;;;5073076;28;20503;-66
2023/01/26 04:09:19;;;;;;;13.07;7.97;;;-1.40;99.90;;;;;;5073232;28;20455;-67
2023/01/26 04:11:46;;;;;;;19.17;9.43;;;-1.40;99.90;;;;;;5073255;28;20464;-66
2023/01/26 04:22:27;;;;;;;16.47;8.47;;;-1.40;99.90;;;;;;5071544;28;20568;-66
2023/01/26 04:24:55;;;;;;;19.30;9.70;;;-1.40;99.90;;;;;;5073371;28;20444;-66
2023/01/26 04:27:22;;;;;;;14.27;8.60;;;-1.40;99.90;;;;;;5073251;28;20510;-66
2023/01/26 04:29:49;;;;;;;17.90;9.17;;;-1.40;99.90;;;;;;5073211;28;20554;-66
2023/01/26 04:32:16;;;;;;;15.07;8.67;;;-1.30;99.90;;;;;;5072474;28;21041;-67
2023/01/26 04:34:43;;;;;;;17.87;9.17;;;-1.30;99.90;;;;;;5072957;28;20498;-66
2023/01/26 04:37:10;;;;;;;15.50;8.80;;;-1.30;99.90;;;;;;5072650;28;20502;-66
2023/01/26 04:39:37;;;;;;;16.83;8.93;;;-1.30;99.90;;;;;;5072567;28;20506;-67
2023/01/26 04:42:03;;;;;;;17.30;9.23;;;-1.30;99.90;;;;;;5072437;28;20478;-67
2023/01/26 04:44:30;;;;;;;17.30;9.00;;;-1.20;99.90;;;;;;5072722;28;20455;-66
2023/01/26 04:46:57;;;;;;;20.70;9.50;;;-1.20;99.90;;;;;;5072599;28;20632;-66
2023/01/26 04:49:23;;;;;;;21.40;10.00;;;-1.20;99.90;;;;;;5072864;28;20462;-67
2023/01/26 04:51:51;;;;;;;18.13;9.40;;;-1.20;99.90;;;;;;5063772;28;20540;-66
2023/01/26 04:54:18;;;;;;;17.83;9.67;;;-1.20;99.90;;;;;;5072528;28;20960;-67
2023/01/26 04:56:45;;;;;;;18.03;8.97;;;-1.30;99.90;;;;;;5072249;28;20440;-66
2023/01/26 04:59:12;;;;;;;18.07;9.63;;;-1.20;99.90;;;;;;5072270;28;20791;-66
2023/01/26 05:01:38;;;;;;;17.80;9.13;;;-1.30;99.90;;;;;;5071720;28;20460;-66
2023/01/26 05:04:06;;;;;;;20.10;9.60;;;-1.30;99.90;;;;;;5072342;28;20850;-66
2023/01/26 05:06:32;;;;;;;20.97;10.40;;;-1.30;99.90;;;;;;5072235;28;20480;-66
2023/01/26 05:09:00;;;;;;;16.97;9.90;;;-1.30;99.90;;;;;;5072308;28;20459;-66
2023/01/26 05:11:27;;;;;;;19.97;10.87;;;-1.30;99.90;;;;;;5071690;28;20552;-65
2023/01/26 05:13:54;;;;;;;17.50;9.93;;;-1.30;99.90;;;;;;5071384;28;20513;-66
2023/01/26 05:16:20;;;;;;;19.70;11.07;;;-1.30;99.90;;;;;;5071941;28;20569;-66
2023/01/26 05:18:47;;;;;;;19.03;10.43;;;-1.30;99.90;;;;;;5072180;28;20497;-66
2023/01/26 05:21:14;;;;;;;18.73;9.83;;;-1.30;99.90;;;;;;5071800;28;20529;-66
2023/01/26 05:23:40;;;;;;;19.70;10.80;;;-1.30;99.90;;;;;;5071515;28;21160;-66
2023/01/26 05:26:08;;;;;;;21.90;10.80;;;-1.30;99.90;;;;;;5071774;28;20529;-66
2023/01/26 05:28:35;;;;;;;19.40;11.00;;;-1.40;99.90;;;;;;5071800;28;20501;-66
2023/01/26 05:31:02;;;;;;;21.77;11.17;;;-1.30;99.90;;;;;;5071449;28;20536;-66
2023/01/26 05:33:28;;;;;;;17.93;10.00;;;-1.30;99.90;;;;;;5071139;28;20457;-66
2023/01/26 05:35:55;;;;;;;20.53;10.47;;;-1.40;99.90;;;;;;5071785;28;20502;-66
2023/01/26 05:38:22;;;;;;;26.13;11.17;;;-1.30;99.90;;;;;;5071026;28;20506;-66
2023/01/26 05:40:49;;;;;;;20.23;11.00;;;-1.40;99.90;;;;;;5071236;28;20498;-67
2023/01/26 05:43:16;;;;;;;20.93;11.13;;;-1.30;99.90;;;;;;5071238;28;20931;-67
2023/01/26 05:45:44;;;;;;;18.20;10.17;;;-1.40;99.90;;;;;;5071280;28;20514;-66
2023/01/26 05:48:10;;;;;;;18.87;9.90;;;-1.40;99.90;;;;;;5071280;28;21032;-66
2023/01/26 05:50:37;;;;;;;17.17;10.90;;;-1.40;99.90;;;;;;5071190;28;20448;-67
2023/01/26 05:53:05;;;;;;;17.03;10.23;;;-1.40;99.90;;;;;;5071062;28;20452;-67
2023/01/26 05:55:31;;;;;;;17.03;9.63;;;-1.40;99.90;;;;;;5070956;28;20456;-66
2023/01/26 05:57:58;;;;;;;19.93;10.70;;;-1.40;99.90;;;;;;5071048;28;21003;-66
2023/01/26 06:00:26;;;;;;;14.37;8.63;;;-1.40;99.90;;;;;;5073032;28;20511;-67
2023/01/26 06:02:52;;;;;;;15.10;9.77;;;-1.40;99.90;;;;;;5067952;28;20463;-67
2023/01/26 06:05:19;;;;;;;15.10;9.00;;;-1.40;99.90;;;;;;5070627;28;20880;-65
2023/01/26 06:07:46;;;;;;;17.47;10.93;;;-1.40;99.90;;;;;;5069680;28;20488;-66
2023/01/26 06:10:12;;;;;;;18.13;10.27;;;-1.40;99.90;;;;;;5070522;28;20457;-66
2023/01/26 06:12:41;;;;;;;19.17;10.23;;;-1.40;99.90;;;;;;5069547;28;20476;-66
2023/01/26 06:15:11;;;;;;;15.67;10.17;;;-1.40;99.90;;;;;;5069181;28;20872;-66
2023/01/26 06:17:39;;;;;;;18.00;9.70;;;-1.40;99.90;;;;;;5070078;28;20452;-66
2023/01/26 06:20:07;;;;;;;17.17;9.00;;;-1.40;99.90;;;;;;5070707;28;20452;-66
2023/01/26 06:22:33;;;;;;;20.33;9.63;;;-1.40;99.90;;;;;;5069905;28;20484;-67
2023/01/26 06:25:00;;;;;;;18.93;10.67;;;-1.40;99.90;;;;;;5070800;28;21029;-67
2023/01/26 06:27:27;;;;;;;23.60;10.63;;;-1.20;99.90;;;;;;5069292;28;20488;-67
2023/01/26 06:29:54;;;;;;;18.40;10.70;;;-1.40;99.90;;;;;;5070378;28;20944;-66
2023/01/26 06:32:20;;;;;;;23.37;11.10;;;-1.40;99.90;;;;;;5070069;28;20612;-66
2023/01/26 06:34:48;;;;;;;20.60;11.40;;;-1.30;99.90;;;;;;5068810;28;20444;-66
2023/01/26 06:37:15;;;;;;;23.57;11.53;;;-1.30;99.90;;;;;;5068363;28;20448;-66
2023/01/26 06:39:41;;;;;;;20.70;10.67;;;-1.40;99.90;;;;;;5069228;28;20478;-66
2023/01/26 06:42:09;;;;;;;19.93;10.87;;;-1.30;99.90;;;;;;5069040;28;20883;-67
2023/01/26 06:44:35;;;;;;;22.40;10.80;;;-1.30;99.90;;;;;;5068660;28;20585;-67
2023/01/26 06:47:02;;;;;;;21.90;11.47;;;-1.40;99.90;;;;;;5069117;28;20487;-66
2023/01/26 06:49:28;;;;;;;25.40;12.10;;;-1.50;99.90;;;;;;5070017;28;20525;-66
2023/01/26 06:52:04;;;;;;;22.90;11.67;;;-1.50;99.90;;;;;;5069114;28;20529;-67
2023/01/26 06:54:30;;;;;;;25.60;11.87;;;-1.50;99.90;;;;;;5069599;28;20616;-66
2023/01/26 06:56:57;;;;;;;22.17;11.60;;;-1.50;99.90;;;;;;5069879;28;20932;-67
2023/01/26 06:59:24;;;;;;;21.53;12.30;;;-1.40;99.90;;;;;;5070002;28;20509;-67
2023/01/26 07:01:51;;;;;;;22.47;11.50;;;-1.40;99.90;;;;;;5061169;28;20476;-68
2023/01/26 07:04:18;;;;;;;24.70;12.30;;;-1.40;99.90;;;;;;5071847;28;20885;-68
2023/01/26 07:06:44;;;;;;;20.63;10.23;;;-1.40;99.90;;;;;;5072859;28;20476;-68
2023/01/26 07:09:12;;;;;;;21.70;10.40;;;-1.40;99.90;;;;;;5071168;28;20456;-69
2023/01/26 07:11:39;;;;;;;20.67;10.40;;;-1.40;99.90;;;;;;5073352;28;20480;-70
2023/01/26 07:14:06;;;;;;;18.00;9.93;;;-1.60;99.90;;;;;;5074561;28;20451;-69
2023/01/26 07:16:33;;;;;;;20.97;10.80;;;-1.60;99.90;;;;;;5076167;28;20464;-69
2023/01/26 07:18:59;;;;;;;21.60;11.40;;;-1.60;99.90;;;;;;5074135;28;20871;-69
2023/01/26 07:21:26;;;;;;;20.50;10.60;;;-1.60;99.90;;;;;;5073954;28;20570;-69
2023/01/26 07:23:52;;;;;;;17.43;10.70;;;-1.60;99.90;;;;;;5073926;28;20456;-69
2023/01/26 07:26:21;;;;;;;17.87;10.57;;;-1.50;99.90;;;;;;5073304;28;20480;-68
2023/01/26 07:28:47;;;;;;;18.37;10.63;;;-1.60;99.90;;;;;;5073292;28;20458;-69
2023/01/26 07:31:14;;;;;;;14.70;9.13;;;-1.50;99.90;;;;;;5072936;28;20475;-68
2023/01/26 07:33:41;;;;;;;18.97;10.20;;;-1.50;99.90;;;;;;5073817;28;20502;-69
2023/01/26 07:36:09;;;;;;;18.83;10.10;;;-1.60;99.90;;;;;;5074037;28;20506;-69
2023/01/26 07:38:36;;;;;;;19.77;10.37;;;-1.60;99.90;;;;;;5072734;28;20464;-68
2023/01/26 07:41:08;;;;;;;16.77;9.93;;;-1.60;99.90;;;;;;5072679;28;20467;-69
2023/01/26 07:43:38;;;;;;;20.87;10.97;;;-1.60;99.90;;;;;;5072723;28;20447;-69
2023/01/26 07:46:05;;;;;;;17.30;9.27;;;-1.60;99.90;;;;;;5073540;28;20452;-69
2023/01/26 07:48:33;;;;;;;19.10;10.97;;;-1.70;99.90;;;;;;5073057;28;20463;-69
2023/01/26 07:51:01;;;;;;;21.70;10.77;;;-1.80;99.90;;;;;;5066211;28;20472;-69
2023/01/26 07:53:29;;;;;;;17.10;10.53;;;-1.90;99.90;;;;;;5072649;28;20452;-69
2023/01/26 07:56:05;;;;;;;19.43;10.03;;;-1.90;99.90;;;;;;5073572;28;20470;-69
2023/01/26 07:58:34;;;;;;;21.40;10.73;;;-1.90;99.90;;;;;;5073208;28;20460;-69
2023/01/26 08:01:07;;;;;;;16.00;9.93;;;-1.80;99.90;;;;;;5073538;28;20503;-69
2023/01/26 08:03:33;;;;;;;18.40;9.30;;;-1.80;99.90;;;;;;5072686;28;20951;-68
2023/01/26 08:06:00;;;;;;;17.50;9.40;;;-1.80;99.90;;;;;;5073080;28;20510;-69
2023/01/26 08:08:26;;;;;;;19.37;9.07;;;-1.80;99.90;;;;;;5072624;28;20480;-69
2023/01/26 08:10:56;;;;;;;17.07;9.83;;;-1.80;99.90;;;;;;5073083;28;20454;-69
2023/01/26 08:13:22;;;;;;;18.73;10.13;;;-1.80;99.90;;;;;;5072338;28;20521;-69
2023/01/26 08:15:49;;;;;;;19.73;9.47;;;-1.80;99.90;;;;;;5072811;28;20505;-69
2023/01/26 08:18:17;;;;;;;14.73;9.20;;;-1.80;99.90;;;;;;5073295;28;20452;-69
2023/01/26 08:20:50;;;;;;;13.43;8.33;;;-1.80;99.90;;;;;;5072740;28;20455;-70
2023/01/26 08:23:16;;;;;;;15.60;8.87;;;-1.80;99.90;;;;;;5072177;28;20458;-68
2023/01/26 08:25:43;;;;;;;15.23;8.63;;;-1.90;99.90;;;;;;5075696;28;20451;-69
2023/01/26 08:28:10;;;;;;;15.53;9.00;;;-1.90;99.90;;;;;;5072747;28;20839;-69
2023/01/26 08:30:36;;;;;;;16.93;9.03;;;-1.90;99.90;;;;;;5072436;28;20456;-69
2023/01/26 08:33:03;;;;;;;14.20;9.10;;;-1.80;99.90;;;;;;5072397;28;20829;-68
2023/01/26 08:35:33;;;;;;;17.47;9.23;;;-1.90;99.90;;;;;;5072374;28;20463;-69
2023/01/26 08:37:59;;;;;;;19.30;9.73;;;-1.80;99.90;;;;;;5073073;28;20452;-69
2023/01/26 08:40:26;;;;;;;16.00;8.73;;;-1.90;99.90;;;;;;5072581;28;20452;-69
2023/01/26 08:42:54;;;;;;;17.83;9.40;;;-1.80;99.90;;;;;;5072610;28;21172;-69
2023/01/26 08:45:20;;;;;;;16.27;9.33;;;-1.80;99.90;;;;;;5071992;28;20935;-68
2023/01/26 08:47:49;;;;;;;16.40;9.13;;;-1.80;99.90;;;;;;5071708;28;20999;-68
2023/01/26 08:50:15;;;;;;;19.00;9.27;;;-1.80;99.90;;;;;;5072324;28;20722;-69
2023/01/26 08:52:43;;;;;;;12.97;8.60;;;-1.80;99.90;;;;;;5071651;28;20471;-69
2023/01/26 08:55:11;;;;;;;17.13;8.90;;;-1.80;99.90;;;;;;5072502;28;20456;-69
2023/01/26 08:57:37;;;;;;;20.00;10.00;;;-1.80;99.90;;;;;;5072326;28;20448;-70
2023/01/26 09:00:06;;;;;;;13.83;9.30;;;-1.90;99.90;;;;;;5072167;28;20460;-69
2023/01/26 09:02:32;;;;;;;15.57;9.13;;;-1.80;99.90;;;;;;5071818;28;21037;-71
2023/01/26 09:04:59;;;;;;;16.03;9.10;;;-1.80;99.90;;;;;;5071085;28;20452;-72
2023/01/26 09:07:26;;;;;;;17.20;9.50;;;-1.80;99.90;;;;;;5071159;28;20918;-72
2023/01/26 09:09:54;;;;;;;18.13;9.33;;;-1.70;99.90;;;;;;5063450;28;20462;-71
2023/01/26 09:12:20;;;;;;;16.07;8.97;;;-1.80;99.90;;;;;;5071022;28;20518;-72
2023/01/26 09:14:47;;;;;;;16.23;8.57;;;-1.80;99.90;;;;;;5071271;28;20456;-71
2023/01/26 09:17:13;;;;;;;15.10;9.00;;;-1.80;99.90;;;;;;5071328;28;20943;-72
2023/01/26 09:19:40;;;;;;;15.10;8.70;;;-1.80;99.90;;;;;;5071008;28;20448;-72
2023/01/26 09:22:07;;;;;;;13.90;8.10;;;-1.80;99.90;;;;;;5070754;28;21076;-72
2023/01/26 09:24:33;;;;;;;15.77;8.70;;;-1.80;99.90;;;;;;5071031;28;20440;-71
2023/01/26 09:27:01;;;;;;;16.00;9.50;;;-1.70;99.90;;;;;;5070854;28;20541;-73
2023/01/26 09:29:28;;;;;;;17.87;9.20;;;-1.70;99.90;;;;;;5070832;28;20845;-71
2023/01/26 09:31:54;;;;;;;20.17;9.30;;;-1.80;99.90;;;;;;5070801;28;20494;-72
2023/01/26 09:34:21;;;;;;;17.53;8.93;;;-1.70;99.90;;;;;;5071013;28;20505;-72
2023/01/26 09:36:48;;;;;;;19.33;9.17;;;-1.80;99.90;;;;;;5070314;28;20452;-72
2023/01/26 09:39:14;;;;;;;15.43;8.80;;;-1.80;99.90;;;;;;5070662;28;20845;-72
2023/01/26 09:41:51;;;;;;;16.00;8.80;;;-1.80;99.90;;;;;;5070600;28;20460;-72
2023/01/26 09:44:24;;;;;;;20.30;8.70;;;-1.80;99.90;;;;;;5070869;28;20459;-73
2023/01/26 09:47:02;;;;;;;16.83;8.00;;;-1.70;99.90;;;;;;5070815;28;20440;-73
2023/01/26 09:49:37;;;;;;;14.73;9.00;;;-1.70;99.90;;;;;;5070209;28;20452;-72
2023/01/26 09:52:10;;;;;;;15.87;8.50;;;-1.60;99.90;;;;;;5070646;28;20471;-72
2023/01/26 09:54:40;;;;;;;17.30;9.30;;;-1.60;99.90;;;;;;5070688;28;20814;-72
2023/01/26 09:57:13;;;;;;;22.00;9.20;;;-1.60;99.90;;;;;;5070688;28;20447;-72
2023/01/26 09:59:48;;;;;;;18.20;9.70;;;-1.50;99.90;;;;;;5070224;28;20659;-72
2023/01/26 10:02:35;;;;;;;22.80;10.97;;;-1.40;99.90;;;;;;5070433;28;20484;-73
2023/01/26 10:05:07;;;;;;;21.63;11.00;;;-1.40;99.90;;;;;;5063498;28;20852;-73
2023/01/26 10:07:34;;;;;;;19.80;10.10;;;-1.30;99.90;;;;;;5070757;28;20483;-73
2023/01/26 10:10:02;;;;;;;23.13;10.87;;;-1.30;99.90;;;;;;5071395;28;20505;-73
2023/01/26 10:12:34;;;;;;;19.67;10.70;;;-1.30;99.90;;;;;;5069714;28;20480;-73
2023/01/26 10:15:07;;;;;;;21.13;10.00;;;-1.20;99.90;;;;;;5071422;28;20452;-73
2023/01/26 10:17:36;;;;;;;20.70;10.90;;;-1.20;99.90;;;;;;5070772;28;20454;-73
2023/01/26 10:20:08;;;;;;;21.10;10.77;;;-1.20;99.90;;;;;;5070716;28;20456;-73
2023/01/26 10:22:43;;;;;;;18.30;9.80;;;-1.10;99.90;;;;;;5070884;28;20475;-73
2023/01/26 10:25:15;;;;;;;20.60;9.80;;;-1.00;99.90;;;;;;5070659;28;20455;-73
2023/01/26 10:27:44;;;;;;;19.77;10.27;;;-1.00;99.90;;;;;;5071330;28;20487;-68
2023/01/26 10:30:15;;;;;;;19.63;10.60;;;-1.00;99.90;;;;;;5070598;28;20555;-68
2023/01/26 10:32:43;;;;;;;21.17;10.97;;;-1.10;99.90;;;;;;5069988;28;20472;-68
2023/01/26 10:35:16;;;;;;;21.73;11.67;;;-1.00;99.90;;;;;;5076459;28;20464;-68
2023/01/26 10:37:43;;;;;;;23.70;11.03;;;-1.00;99.90;;;;;;5070875;28;20928;-68
2023/01/26 10:40:11;;;;;;;22.37;10.80;;;-1.00;99.90;;;;;;5075066;28;20451;-68
2023/01/26 10:42:39;;;;;;;22.63;12.00;;;-1.00;99.90;;;;;;5074388;28;20482;-68
2023/01/26 10:45:25;;;;;;;23.90;11.40;;;-0.90;99.90;;;;;;5074302;28;20760;-68
2023/01/26 10:48:03;;;;;;;22.13;10.23;;;-0.90;99.90;;;;;;5074877;28;20572;-68
2023/01/26 10:50:31;;;;;;;22.53;11.80;;;-0.80;99.90;;;;;;5074362;28;20452;-68
2023/01/26 10:52:59;;;;;;;25.90;11.10;;;-0.80;99.90;;;;;;5074700;28;20555;-68
2023/01/26 10:55:26;;;;;;;25.87;10.70;;;-0.80;99.90;;;;;;5073874;28;20448;-68
2023/01/26 10:57:52;;;;;;;22.97;11.03;;;-0.60;99.90;;;;;;5067048;28;20931;-68
2023/01/26 11:00:27;;;;;;;29.90;13.30;;;-0.70;99.90;;;;;;5074775;28;20447;-67
2023/01/26 11:02:59;;;;;;;23.77;10.87;;;-0.70;99.90;;;;;;5073696;28;20474;-68
2023/01/26 11:05:27;;;;;;;25.60;11.53;;;-0.70;99.90;;;;;;5074179;28;20452;-67
2023/01/26 11:07:59;;;;;;;23.80;12.40;;;-0.80;99.90;;;;;;5074704;28;20529;-68
2023/01/26 11:10:30;;;;;;;25.30;12.10;;;-0.80;99.90;;;;;;5074542;28;20451;-67
2023/01/26 11:13:12;;;;;;;24.70;11.60;;;-0.80;99.90;;;;;;5074285;28;20541;-68
2023/01/26 11:15:42;;;;;;;26.60;11.10;;;-0.80;99.90;;;;;;5073865;28;20508;-68
2023/01/26 11:18:19;;;;;;;25.60;13.03;;;-0.70;99.90;;;;;;5074010;28;20455;-67
2023/01/26 11:20:54;;;;;;;25.47;11.33;;;-0.60;99.90;;;;;;5074145;28;20860;-68
2023/01/26 11:23:35;;;;;;;25.83;12.40;;;-0.60;99.90;;;;;;5074268;28;20451;-68
2023/01/26 11:26:29;;;;;;;25.37;12.53;;;-0.60;99.90;;;;;;5074129;28;20508;-68
2023/01/26 11:29:12;;;;;;;29.83;12.40;;;-0.60;99.90;;;;;;5029716;28;20487;-68
2023/01/26 11:31:52;;;;;;;28.57;13.90;;;-0.60;99.90;;;;;;5073509;28;20525;-68
2023/01/26 11:34:37;;;;;;;28.60;13.20;;;-0.60;99.90;;;;;;5068933;28;20512;-68
2023/01/26 11:37:35;;;;;;;32.23;13.67;;;-0.60;99.90;;;;;;5067622;28;20854;-68
2023/01/26 11:40:14;;;;;;;34.50;13.70;;;-0.60;99.90;;;;;;5073218;28;20460;-68
2023/01/26 11:42:46;;;;;;;31.77;14.00;;;-0.60;99.90;;;;;;5073663;28;21052;-68
2023/01/26 11:45:21;;;;;;;28.57;12.80;;;-0.60;99.90;;;;;;5073812;28;20505;-68
2023/01/26 11:48:01;;;;;;;29.67;13.50;;;-0.50;99.90;;;;;;5073186;28;21087;-68
2023/01/26 11:50:36;;;;;;;34.83;14.20;;;-0.50;99.90;;;;;;5073005;28;20460;-68
2023/01/26 11:53:26;;;;;;;34.13;14.17;;;-0.50;99.90;;;;;;5073538;28;20485;-68
2023/01/26 11:56:04;;;;;;;36.23;13.47;;;-0.50;99.90;;;;;;5065715;28;20527;-68
2023/01/26 11:58:36;;;;;;;31.00;13.53;;;-0.40;99.90;;;;;;5073809;28;20447;-68
2023/01/26 12:01:06;;;;;;;31.50;13.30;;;-0.40;99.90;;;;;;5073305;28;20525;-68
2023/01/26 12:03:40;;;;;;;33.33;13.90;;;-0.40;99.90;;;;;;5072685;28;20869;-68
2023/01/26 12:06:13;;;;;;;31.63;13.87;;;-0.40;99.90;;;;;;5073356;28;20449;-68
2023/01/26 12:08:43;;;;;;;37.47;14.33;;;-0.40;99.90;;;;;;5073146;28;20545;-68
2023/01/26 12:11:24;;;;;;;35.80;14.00;;;-0.40;99.90;;;;;;5073206;28;20976;-68
2023/01/26 12:14:07;;;;;;;33.40;13.80;;;-0.30;99.90;;;;;;5072726;28;20475;-68
2023/01/26 12:16:42;;;;;;;30.67;12.83;;;-0.30;99.90;;;;;;5074652;28;20467;-68
2023/01/26 12:19:19;;;;;;;35.33;14.10;;;-0.30;99.90;;;;;;5073549;28;20482;-69
2023/01/26 12:21:49;;;;;;;34.80;14.90;;;-0.30;99.90;;;;;;5072770;28;20533;-68
2023/01/26 12:24:24;;;;;;;32.67;14.87;;;-0.30;99.90;;;;;;5072897;28;20456;-68
2023/01/26 12:26:53;;;;;;;36.87;16.47;;;-0.20;99.90;;;;;;5072941;28;20513;-68
2023/01/26 12:29:25;;;;;;;38.90;16.30;;;-0.30;99.90;;;;;;5072819;28;20487;-68
2023/01/26 12:31:57;;;;;;;36.37;15.87;;;-0.20;99.90;;;;;;5072696;28;20514;-68
2023/01/26 12:34:28;;;;;;;36.80;14.70;;;-0.20;99.90;;;;;;5073067;28;20826;-68
2023/01/26 12:37:09;;;;;;;32.53;12.57;;;-0.20;99.90;;;;;;5071963;28;20443;-69
2023/01/26 12:39:41;;;;;;;34.33;15.20;;;-0.20;99.90;;;;;;5072344;28;20444;-68
2023/01/26 12:42:18;;;;;;;31.83;14.37;;;-0.20;99.90;;;;;;5071364;28;20566;-68
2023/01/26 12:44:50;;;;;;;40.83;14.90;;;-0.10;99.90;;;;;;5072454;28;20852;-68
2023/01/26 12:47:22;;;;;;;34.83;14.17;;;-0.10;99.90;;;;;;5071970;28;20448;-69
2023/01/26 12:49:56;;;;;;;32.77;14.57;;;-0.10;99.90;;;;;;5072050;28;20549;-68
2023/01/26 12:52:30;;;;;;;43.27;14.07;;;0.00;99.90;;;;;;5071691;28;20471;-67
2023/01/26 12:55:01;;;;;;;37.60;13.93;;;0.00;99.90;;;;;;5071564;28;20982;-68
2023/01/26 12:57:35;;;;;;;31.57;14.07;;;0.00;99.90;;;;;;5071533;28;20460;-69
2023/01/26 13:00:17;;;;;;;36.30;14.10;;;0.00;99.90;;;;;;5069917;28;20452;-69
2023/01/26 13:02:45;;;;;;;38.67;14.30;;;0.00;99.90;;;;;;5070374;28;20882;-69
2023/01/26 13:05:24;;;;;;;34.73;14.43;;;0.00;99.90;;;;;;5071689;28;20853;-69
2023/01/26 13:07:51;;;;;;;34.87;12.73;;;0.00;99.90;;;;;;5064727;28;20523;-69
2023/01/26 13:10:38;;;;;;;35.60;14.07;;;0.00;99.90;;;;;;5071226;28;20468;-69
2023/01/26 13:13:26;;;;;;;32.97;13.10;;;0.10;99.90;;;;;;5068737;28;20516;-68
2023/01/26 13:16:27;;;;;;;40.10;15.20;;;0.20;99.90;;;;;;5071345;28;20928;-69
2023/01/26 13:18:55;;;;;;;31.40;13.47;;;0.20;99.90;;;;;;5071143;28;20447;-69
2023/01/26 13:21:27;;;;;;;36.70;14.10;;;0.30;99.90;;;;;;5071111;28;20881;-70
2023/01/26 13:23:55;;;;;;;33.93;14.00;;;0.30;99.90;;;;;;5071270;28;20463;-70
2023/01/26 13:26:41;;;;;;;34.03;13.60;;;0.40;99.90;;;;;;5071391;28;20452;-69
2023/01/26 13:29:51;;;;;;;33.13;13.83;;;0.40;99.90;;;;;;5071398;28;20487;-69
2023/01/26 13:32:54;;;;;;;29.97;12.20;;;0.40;99.90;;;;;;4988975;28;20507;-71